Riverton, Nebraska
Current Conditions -  °F | °C
As of 4:55 PM on Thursday 18 Dec 2014 (Local Time) from KHDE Reporting Station
Overcast Overcast  
Wind Chill: -6°   Ceiling: 1200
Heat Index: -2°   Visibility: 10mi
Dew Point: -4°   Wind: 7mph
Humidity: 86%   Direction: 260°W
Pressure: 30.13"   Gusts: NA
Location:  40.09°N, 98.76°W
Report Text: KHDE 182255Z AUTO 26006KT 10SM OVC012 M02/M04 A3013 RMK AO2 T10201040
Loading
Personal Weather Stations






























Interactive Weather Map New forecast layout! Learn more

10-Day Weather Forecast

Advertisements
Track Severe Weather on mobile